createdAt,value
2023-01-17T00:00:29.964Z,20.20
2023-01-17T00:03:02.429Z,22.70
2023-01-17T00:05:51.147Z,19.10
2023-01-17T00:08:40.017Z,21.40
2023-01-17T00:11:12.333Z,20.30
2023-01-17T00:13:43.664Z,19.80
2023-01-17T00:16:15.568Z,21.30
2023-01-17T00:19:07.940Z,21.50
2023-01-17T00:21:56.712Z,22.10
2023-01-17T00:24:45.855Z,21.90
2023-01-17T00:27:15.971Z,19.50
2023-01-17T00:29:46.104Z,22.60
2023-01-17T00:32:16.239Z,19.40
2023-01-17T00:34:46.757Z,23.70
2023-01-17T00:37:17.062Z,22.10
2023-01-17T00:39:47.626Z,22.40
2023-01-17T00:42:17.947Z,21.90
2023-01-17T00:45:06.730Z,21.20
2023-01-17T00:47:56.974Z,22.50
2023-01-17T00:50:49.199Z,19.80
2023-01-17T00:53:38.557Z,19.30
2023-01-17T00:56:28.235Z,21.50
2023-01-17T00:59:17.145Z,21.60
2023-01-17T01:02:06.090Z,21.30
2023-01-17T01:04:55.790Z,21.10
2023-01-17T01:07:44.438Z,21.70
2023-01-17T01:10:33.809Z,22.80
2023-01-17T01:13:22.829Z,21.50
2023-01-17T01:16:11.598Z,23.10
2023-01-17T01:19:00.343Z,22.70
2023-01-17T01:21:49.797Z,22.20
2023-01-17T01:24:39.223Z,22.60
2023-01-17T01:27:28.481Z,21.90
2023-01-17T01:30:17.627Z,22.60
2023-01-17T01:33:06.194Z,25.10
2023-01-17T01:35:39.822Z,23.00
2023-01-17T01:38:12.319Z,21.10
2023-01-17T01:40:52.963Z,21.30
2023-01-17T01:43:43.129Z,22.20
2023-01-17T01:46:18.541Z,21.50
2023-01-17T01:48:55.504Z,22.30
2023-01-17T01:51:31.552Z,22.30
2023-01-17T01:54:08.943Z,20.50
2023-01-17T01:56:42.559Z,21.40
2023-01-17T01:59:18.231Z,21.30
2023-01-17T02:01:51.759Z,19.70
2023-01-17T02:04:24.734Z,23.30
2023-01-17T02:07:02.291Z,20.10
2023-01-17T02:09:33.761Z,21.10
2023-01-17T02:12:06.522Z,21.70
2023-01-17T02:14:38.225Z,21.00
2023-01-17T02:17:21.373Z,22.30
2023-01-17T02:20:14.001Z,22.00
2023-01-17T02:23:22.053Z,21.30
2023-01-17T02:26:29.367Z,21.00
2023-01-17T02:29:26.323Z,20.70
2023-01-17T02:32:03.600Z,21.30
2023-01-17T02:34:42.786Z,21.20
2023-01-17T02:37:20.177Z,20.30
2023-01-17T02:39:57.762Z,18.90
2023-01-17T02:42:33.452Z,21.60
2023-01-17T02:45:05.980Z,20.40
2023-01-17T02:47:37.842Z,21.40
2023-01-17T02:50:14.245Z,21.10
2023-01-17T02:52:57.312Z,21.20
2023-01-17T02:55:42.358Z,19.30
2023-01-17T02:58:34.977Z,19.00
2023-01-17T03:01:19.219Z,19.30
2023-01-17T03:03:56.877Z,21.00
2023-01-17T03:06:32.701Z,19.40
2023-01-17T03:09:05.615Z,22.10
2023-01-17T03:11:38.181Z,20.50
2023-01-17T03:14:09.959Z,19.40
2023-01-17T03:16:41.786Z,19.40
2023-01-17T03:19:14.969Z,17.90
2023-01-17T03:21:46.810Z,20.90
2023-01-17T03:24:18.132Z,19.70
2023-01-17T03:26:49.839Z,22.70
2023-01-17T03:29:22.595Z,20.80
2023-01-17T03:31:54.152Z,22.20
2023-01-17T03:34:26.058Z,21.60
2023-01-17T03:36:57.720Z,18.10
2023-01-17T03:39:29.509Z,19.90
2023-01-17T03:42:01.192Z,18.70
2023-01-17T03:44:32.546Z,19.30
2023-01-17T03:47:04.388Z,19.20
2023-01-17T03:49:36.010Z,22.30
2023-01-17T03:52:08.151Z,20.10
2023-01-17T03:54:39.576Z,18.80
2023-01-17T03:57:10.989Z,18.00
2023-01-17T03:59:42.898Z,18.60
2023-01-17T04:02:14.551Z,18.20
2023-01-17T04:04:46.490Z,21.10
2023-01-17T04:07:18.136Z,18.20
2023-01-17T04:09:50.194Z,16.70
2023-01-17T04:12:21.845Z,17.10
2023-01-17T04:14:53.632Z,17.10
2023-01-17T04:17:26.462Z,17.70
2023-01-17T04:19:58.717Z,16.10
2023-01-17T04:22:31.812Z,15.90
2023-01-17T04:25:03.544Z,16.20
2023-01-17T04:27:34.913Z,18.10
2023-01-17T04:30:07.299Z,17.10
2023-01-17T04:32:48.825Z,16.50
2023-01-17T04:35:33.409Z,14.50
2023-01-17T04:38:05.764Z,15.40
2023-01-17T04:40:37.454Z,14.10
2023-01-17T04:43:08.836Z,14.90
2023-01-17T04:45:40.221Z,13.80
2023-01-17T04:48:13.096Z,14.00
2023-01-17T04:50:44.737Z,15.80
2023-01-17T04:53:16.089Z,14.40
2023-01-17T04:55:49.834Z,14.80
2023-01-17T04:58:21.403Z,15.50
2023-01-17T05:00:53.031Z,15.50
2023-01-17T05:03:25.957Z,15.00
2023-01-17T05:05:57.621Z,13.90
2023-01-17T05:08:29.019Z,17.00
2023-01-17T05:11:00.724Z,14.70
2023-01-17T05:13:32.366Z,16.20
2023-01-17T05:16:04.790Z,14.60
2023-01-17T05:18:36.182Z,13.70
2023-01-17T05:21:08.164Z,12.90
2023-01-17T05:23:40.822Z,14.10
2023-01-17T05:26:12.420Z,13.50
2023-01-17T05:28:43.819Z,15.60
2023-01-17T05:31:15.117Z,19.60
2023-01-17T05:33:46.540Z,16.50
2023-01-17T05:36:19.222Z,17.90
2023-01-17T05:38:52.515Z,16.80
2023-01-17T05:41:24.275Z,16.90
2023-01-17T05:43:55.876Z,18.10
2023-01-17T05:46:27.398Z,17.60
2023-01-17T05:48:59.350Z,16.80
2023-01-17T05:51:31.325Z,16.90
2023-01-17T05:54:02.847Z,17.50
2023-01-17T05:56:34.924Z,17.40
2023-01-17T05:59:06.440Z,17.80
2023-01-17T06:01:38.316Z,18.50
2023-01-17T06:04:10.187Z,16.70
2023-01-17T06:06:41.964Z,18.00
2023-01-17T06:09:14.186Z,16.50
2023-01-17T06:11:45.611Z,16.70
2023-01-17T06:14:17.191Z,19.70
2023-01-17T06:16:49.179Z,18.20
2023-01-17T06:19:20.765Z,20.80
2023-01-17T06:21:52.899Z,16.60
2023-01-17T06:24:24.212Z,22.70
2023-01-17T06:26:55.806Z,21.70
2023-01-17T06:29:27.639Z,17.50
2023-01-17T06:32:01.509Z,14.90
2023-01-17T06:34:33.375Z,21.30
2023-01-17T06:37:05.446Z,20.50
2023-01-17T06:39:36.957Z,21.00
2023-01-17T06:42:08.836Z,20.40
2023-01-17T06:44:40.398Z,26.90
2023-01-17T06:47:12.110Z,21.70
2023-01-17T06:49:44.064Z,21.30
2023-01-17T06:52:15.507Z,21.70
2023-01-17T06:54:47.009Z,21.50
2023-01-17T06:57:18.571Z,19.30
2023-01-17T06:59:50.002Z,22.20
2023-01-17T07:02:21.603Z,17.70
2023-01-17T07:04:53.338Z,20.10
2023-01-17T07:07:25.126Z,17.40
2023-01-17T07:09:56.824Z,17.80
2023-01-17T07:12:28.255Z,20.40
2023-01-17T07:14:59.637Z,17.70
2023-01-17T07:17:32.167Z,16.10
2023-01-17T07:20:04.835Z,17.10
2023-01-17T07:22:37.970Z,15.90
2023-01-17T07:25:11.938Z,17.70
2023-01-17T07:27:43.703Z,19.00
2023-01-17T07:30:16.448Z,20.00
2023-01-17T07:32:51.755Z,16.50
2023-01-17T07:35:26.963Z,15.80
2023-01-17T07:37:58.386Z,20.50
2023-01-17T07:40:29.931Z,17.00
2023-01-17T07:43:12.588Z,15.50
2023-01-17T07:45:46.489Z,16.20
2023-01-17T07:48:18.495Z,15.90
2023-01-17T07:50:55.187Z,16.50
2023-01-17T07:53:29.277Z,17.00
2023-01-17T07:56:04.570Z,15.20
2023-01-17T07:58:36.749Z,15.20
2023-01-17T08:01:11.171Z,16.50
2023-01-17T08:03:43.664Z,17.40
2023-01-17T08:06:22.380Z,15.50
2023-01-17T08:08:55.353Z,15.80
2023-01-17T08:11:27.212Z,15.70
2023-01-17T08:13:59.782Z,15.10
2023-01-17T08:16:31.732Z,15.60
2023-01-17T08:19:03.518Z,13.10
2023-01-17T08:21:35.610Z,14.10
2023-01-17T08:24:07.768Z,15.50
2023-01-17T08:26:39.990Z,15.80
2023-01-17T08:29:12.646Z,15.70
2023-01-17T08:31:44.333Z,14.00
2023-01-17T08:34:15.783Z,16.70
2023-01-17T08:36:48.246Z,16.10
2023-01-17T08:39:20.320Z,17.40
2023-01-17T08:41:52.390Z,15.60
2023-01-17T08:44:24.153Z,15.10
2023-01-17T08:46:56.094Z,16.30
2023-01-17T08:49:28.442Z,14.00
2023-01-17T08:52:00.035Z,14.20
2023-01-17T08:54:32.022Z,14.30
2023-01-17T08:57:05.334Z,14.70
2023-01-17T08:59:36.878Z,17.30
2023-01-17T09:02:15.241Z,14.40
2023-01-17T09:04:49.479Z,13.50
2023-01-17T09:07:22.431Z,11.60
2023-01-17T09:09:54.003Z,13.40
2023-01-17T09:12:25.457Z,15.00
2023-01-17T09:14:56.901Z,12.10
2023-01-17T09:17:28.830Z,14.70
2023-01-17T09:20:01.581Z,14.30
2023-01-17T09:22:33.964Z,14.50
2023-01-17T09:25:05.925Z,12.50
2023-01-17T09:27:37.552Z,12.90
2023-01-17T09:30:12.301Z,13.00
2023-01-17T09:35:13.831Z,12.20
2023-01-17T09:37:45.520Z,13.70
2023-01-17T09:40:19.840Z,14.60
2023-01-17T09:42:54.867Z,16.10
2023-01-17T09:45:30.043Z,15.90
2023-01-17T09:48:08.168Z,14.40
2023-01-17T09:50:45.475Z,16.40
2023-01-17T09:53:21.138Z,15.70
2023-01-17T09:55:59.047Z,14.10
2023-01-17T09:58:43.866Z,14.60
2023-01-17T10:01:22.857Z,14.70
2023-01-17T10:04:19.759Z,12.70
2023-01-17T10:07:07.126Z,16.40
2023-01-17T10:09:56.520Z,14.60
2023-01-17T10:12:34.764Z,17.30
2023-01-17T10:15:39.346Z,15.90
2023-01-17T10:18:30.406Z,15.60
2023-01-17T10:21:11.517Z,15.70
2023-01-17T10:24:16.623Z,15.30
2023-01-17T10:26:51.442Z,14.30
2023-01-17T10:31:57.039Z,17.20
2023-01-17T10:37:07.665Z,13.30
2023-01-17T10:39:39.497Z,13.90
2023-01-17T10:42:21.673Z,17.00
2023-01-17T10:45:00.852Z,13.40
2023-01-17T10:47:36.668Z,16.50
2023-01-17T10:50:13.395Z,14.50
2023-01-17T10:52:53.584Z,18.00
2023-01-17T10:55:40.841Z,14.60
2023-01-17T10:58:14.356Z,14.80
2023-01-17T11:00:51.647Z,17.50
2023-01-17T11:03:24.669Z,16.10
2023-01-17T11:06:20.064Z,15.90
2023-01-17T11:08:56.612Z,13.50
2023-01-17T11:11:32.139Z,13.70
2023-01-17T11:14:06.594Z,14.30
2023-01-17T11:16:38.511Z,14.80
2023-01-17T11:19:16.652Z,15.70
2023-01-17T11:21:58.099Z,17.20
2023-01-17T11:24:36.270Z,14.80
2023-01-17T11:27:24.169Z,15.50
2023-01-17T11:30:06.888Z,16.80
2023-01-17T11:32:39.559Z,13.40
2023-01-17T11:35:22.025Z,15.80
2023-01-17T11:38:06.221Z,12.40
2023-01-17T11:40:41.917Z,15.10
2023-01-17T11:43:25.764Z,17.20
2023-01-17T11:46:19.485Z,19.00
2023-01-17T11:48:57.255Z,15.10
2023-01-17T11:51:34.528Z,15.20
2023-01-17T11:54:18.609Z,16.30
2023-01-17T11:56:50.785Z,16.40
2023-01-17T11:59:31.705Z,14.70
2023-01-17T12:02:22.708Z,17.20
2023-01-17T12:05:02.843Z,13.80
2023-01-17T12:07:46.187Z,13.80
2023-01-17T12:10:24.854Z,13.90
2023-01-17T12:13:22.423Z,14.30
2023-01-17T12:16:17.057Z,14.40
2023-01-17T12:19:00.126Z,14.30
2023-01-17T12:21:40.828Z,13.80
2023-01-17T12:24:37.477Z,15.50
2023-01-17T12:27:16.785Z,15.80
2023-01-17T12:30:00.248Z,12.60
2023-01-17T12:33:04.174Z,16.30
2023-01-17T12:35:40.095Z,16.20
2023-01-17T12:38:27.337Z,15.40
2023-01-17T12:41:05.692Z,13.90
2023-01-17T12:43:40.963Z,20.40
2023-01-17T12:46:21.205Z,16.50
2023-01-17T12:48:57.699Z,11.40
2023-01-17T12:51:34.097Z,12.20
2023-01-17T12:54:14.088Z,12.60
2023-01-17T12:56:50.440Z,11.10
2023-01-17T12:59:30.479Z,12.80
2023-01-17T13:02:12.465Z,11.10
2023-01-17T13:04:58.349Z,11.90
2023-01-17T13:07:39.722Z,14.20
2023-01-17T13:10:23.846Z,13.30
2023-01-17T13:13:00.664Z,10.80
2023-01-17T13:15:39.216Z,12.80
2023-01-17T13:18:16.034Z,12.40
2023-01-17T13:21:09.536Z,11.60
2023-01-17T13:23:56.095Z,14.40
2023-01-17T13:26:39.585Z,14.10
2023-01-17T13:29:25.134Z,12.00
2023-01-17T13:32:06.739Z,13.30
2023-01-17T13:35:09.441Z,15.40
2023-01-17T13:38:01.261Z,13.40
2023-01-17T13:40:43.880Z,15.40
2023-01-17T13:43:25.916Z,12.70
2023-01-17T13:46:05.942Z,14.90
2023-01-17T13:48:46.525Z,13.70
2023-01-17T13:51:20.131Z,16.40
2023-01-17T13:53:57.302Z,18.90
2023-01-17T13:56:36.857Z,17.10
2023-01-17T13:59:34.676Z,17.90
2023-01-17T14:02:28.057Z,18.60
2023-01-17T14:05:15.647Z,18.20
2023-01-17T14:07:56.226Z,21.70
2023-01-17T14:10:39.013Z,15.40
2023-01-17T14:13:36.975Z,19.80
2023-01-17T14:16:28.721Z,15.40
2023-01-17T14:19:04.522Z,15.60
2023-01-17T14:21:36.674Z,15.30
2023-01-17T14:24:20.072Z,15.40
2023-01-17T14:26:57.204Z,17.30
2023-01-17T14:29:56.145Z,18.90
2023-01-17T14:32:34.459Z,19.10
2023-01-17T14:35:09.472Z,17.50
2023-01-17T14:37:48.368Z,16.90
2023-01-17T14:40:27.688Z,19.80
2023-01-17T14:43:04.551Z,17.50
2023-01-17T14:45:42.325Z,18.50
2023-01-17T14:48:20.339Z,17.70
2023-01-17T14:50:54.845Z,15.30
2023-01-17T14:53:28.409Z,15.50
2023-01-17T14:56:21.082Z,15.00
2023-01-17T14:59:08.398Z,17.60
2023-01-17T15:01:41.280Z,21.10
2023-01-17T15:04:26.546Z,31.20
2023-01-17T15:07:00.315Z,54.50
2023-01-17T15:09:34.422Z,81.80
2023-01-17T15:12:09.983Z,90.30
2023-01-17T15:14:44.853Z,69.30
2023-01-17T15:17:22.142Z,36.90
2023-01-17T15:19:58.473Z,30.60
2023-01-17T15:22:31.284Z,20.00
2023-01-17T15:25:04.322Z,18.80
2023-01-17T15:27:36.330Z,15.20
2023-01-17T15:30:18.530Z,17.40
2023-01-17T15:32:53.282Z,18.10
2023-01-17T15:37:58.643Z,23.60
2023-01-17T15:40:33.505Z,29.60
2023-01-17T15:43:06.982Z,30.20
2023-01-17T15:45:41.902Z,41.50
2023-01-17T15:48:39.093Z,41.60
2023-01-17T15:51:16.019Z,46.10
2023-01-17T15:53:49.701Z,34.90
2023-01-17T15:56:31.479Z,43.00
2023-01-17T15:59:35.273Z,47.20
2023-01-17T16:02:24.728Z,45.00
2023-01-17T16:04:56.698Z,50.40
2023-01-17T16:07:35.520Z,52.90
2023-01-17T16:10:16.725Z,64.70
2023-01-17T16:12:50.032Z,63.20
2023-01-17T16:15:23.961Z,57.40
2023-01-17T16:17:58.693Z,47.30
2023-01-17T16:23:07.042Z,33.80
2023-01-17T16:25:40.536Z,31.00
2023-01-17T16:28:12.490Z,29.60
2023-01-17T16:30:45.337Z,28.70
2023-01-17T16:33:17.966Z,22.40
2023-01-17T16:35:51.598Z,20.20
2023-01-17T16:38:26.305Z,19.80
2023-01-17T16:40:58.993Z,23.80
2023-01-17T16:43:31.398Z,22.20
2023-01-17T16:46:03.653Z,19.60
2023-01-17T16:48:44.637Z,20.20
2023-01-17T16:51:21.270Z,25.00
2023-01-17T16:53:52.654Z,22.40
2023-01-17T16:56:24.212Z,24.10
2023-01-17T16:58:56.485Z,26.30
2023-01-17T17:01:28.087Z,24.70
2023-01-17T17:03:59.892Z,26.20
2023-01-17T17:06:33.239Z,24.80
2023-01-17T17:09:05.315Z,26.90
2023-01-17T17:11:36.874Z,23.70
2023-01-17T17:14:09.654Z,29.70
2023-01-17T17:16:41.757Z,27.70
2023-01-17T17:19:16.811Z,29.70
2023-01-17T17:21:49.723Z,30.40
2023-01-17T17:24:21.195Z,28.40
2023-01-17T17:26:52.949Z,27.70
2023-01-17T17:29:25.581Z,35.20
2023-01-17T17:31:57.677Z,30.10
2023-01-17T17:34:31.182Z,30.00
2023-01-17T17:37:03.879Z,31.30
2023-01-17T17:39:35.930Z,30.50
2023-01-17T17:42:08.183Z,32.30
2023-01-17T17:44:40.415Z,33.90
2023-01-17T17:47:13.236Z,35.00
2023-01-17T17:49:46.411Z,32.80
2023-01-17T17:52:17.866Z,30.40
2023-01-17T17:54:51.121Z,28.90
2023-01-17T17:57:23.373Z,31.40
2023-01-17T17:59:57.275Z,33.70
2023-01-17T18:02:29.618Z,34.40
2023-01-17T18:05:03.058Z,33.70
2023-01-17T18:07:37.651Z,31.20
2023-01-17T18:10:12.506Z,30.30
2023-01-17T18:15:21.130Z,31.30
2023-01-17T18:17:56.853Z,32.40
2023-01-17T18:20:30.955Z,34.40
2023-01-17T18:23:02.979Z,33.00
2023-01-17T18:25:44.307Z,36.80
2023-01-17T18:28:17.660Z,48.20
2023-01-17T18:30:51.108Z,48.60
2023-01-17T18:33:23.997Z,52.10
2023-01-17T18:36:02.138Z,68.00
2023-01-17T18:38:40.368Z,55.70
2023-01-17T18:41:17.045Z,52.50
2023-01-17T18:43:50.835Z,52.20
2023-01-17T18:46:26.162Z,47.00
2023-01-17T18:49:01.963Z,43.30
2023-01-17T18:51:41.108Z,49.80
2023-01-17T18:54:20.825Z,44.40
2023-01-17T18:56:57.765Z,44.90
2023-01-17T18:59:36.864Z,41.10
2023-01-17T19:02:12.599Z,41.30
2023-01-17T19:04:49.010Z,41.30
2023-01-17T19:07:23.193Z,41.10
2023-01-17T19:09:57.696Z,40.90
2023-01-17T19:12:31.461Z,43.00
2023-01-17T19:15:07.641Z,44.60
2023-01-17T19:17:40.957Z,38.80
2023-01-17T19:20:18.658Z,41.30
2023-01-17T19:22:55.939Z,41.80
2023-01-17T19:25:32.457Z,42.50
2023-01-17T19:28:07.667Z,45.30
2023-01-17T19:30:43.054Z,43.00
2023-01-17T19:33:17.309Z,54.20
2023-01-17T19:35:55.723Z,54.70
2023-01-17T19:38:29.274Z,56.80
2023-01-17T19:41:14.838Z,56.30
2023-01-17T19:43:48.921Z,46.50
2023-01-17T19:46:24.235Z,48.00
2023-01-17T19:48:57.823Z,38.30
2023-01-17T19:51:32.180Z,36.30
2023-01-17T19:54:16.078Z,41.20
2023-01-17T19:56:57.076Z,37.30
2023-01-17T19:59:30.355Z,34.80
2023-01-17T20:02:12.289Z,34.40
2023-01-17T20:04:47.506Z,38.60
2023-01-17T20:07:23.442Z,44.10
2023-01-17T20:09:58.401Z,39.10
2023-01-17T20:12:36.149Z,40.20
2023-01-17T20:15:11.156Z,41.80
2023-01-17T20:20:16.696Z,41.20
2023-01-17T20:22:50.784Z,40.20
2023-01-17T20:25:23.548Z,39.90
2023-01-17T20:28:00.665Z,41.20
2023-01-17T20:30:35.025Z,39.50
2023-01-17T20:33:15.598Z,39.10
2023-01-17T20:35:49.030Z,39.40
2023-01-17T20:38:27.908Z,42.90
2023-01-17T20:41:13.513Z,38.10
2023-01-17T20:43:47.849Z,37.10
2023-01-17T20:46:23.455Z,43.20
2023-01-17T20:48:57.143Z,47.10
2023-01-17T20:51:31.275Z,50.30
2023-01-17T20:54:04.622Z,52.30
2023-01-17T20:56:38.091Z,68.80
2023-01-17T20:59:13.906Z,64.50
2023-01-17T21:01:46.449Z,55.00
2023-01-17T21:04:26.045Z,49.10
2023-01-17T21:06:58.918Z,53.50
2023-01-17T21:09:31.024Z,58.10
2023-01-17T21:12:02.617Z,58.40
2023-01-17T21:14:35.163Z,59.80
2023-01-17T21:17:09.927Z,59.70
2023-01-17T21:22:17.094Z,63.30
2023-01-17T21:24:49.940Z,68.50
2023-01-17T21:27:22.251Z,62.50
2023-01-17T21:29:56.410Z,62.60
2023-01-17T21:32:30.762Z,58.70
2023-01-17T21:35:02.528Z,59.60
2023-01-17T21:37:34.541Z,56.00
2023-01-17T21:40:07.369Z,54.70
2023-01-17T21:42:39.448Z,57.40
2023-01-17T21:45:13.477Z,63.00
2023-01-17T21:47:48.266Z,64.80
2023-01-17T21:53:08.790Z,54.10
2023-01-17T21:55:57.634Z,61.70
2023-01-17T21:58:45.099Z,62.60
2023-01-17T22:01:21.823Z,56.90
2023-01-17T22:03:54.984Z,57.70
2023-01-17T22:06:29.719Z,70.50
2023-01-17T22:11:31.657Z,58.50
2023-01-17T22:14:05.377Z,56.10
2023-01-17T22:16:37.051Z,55.20
2023-01-17T22:19:08.466Z,65.60
2023-01-17T22:21:40.099Z,61.50
2023-01-17T22:24:13.939Z,58.20
2023-01-17T22:26:45.377Z,56.80
2023-01-17T22:29:19.131Z,55.70
2023-01-17T22:31:50.855Z,57.40
2023-01-17T22:34:23.057Z,56.10
2023-01-17T22:36:54.494Z,57.40
2023-01-17T22:39:26.514Z,53.40
2023-01-17T22:41:58.217Z,57.60
2023-01-17T22:44:30.006Z,52.20
2023-01-17T22:47:01.581Z,45.60
2023-01-17T22:49:33.282Z,47.50
2023-01-17T22:52:04.727Z,47.80
2023-01-17T22:54:36.084Z,48.10
2023-01-17T22:57:07.794Z,57.30
2023-01-17T22:59:39.377Z,55.40
2023-01-17T23:02:12.419Z,51.30
2023-01-17T23:04:44.001Z,53.90
2023-01-17T23:07:15.541Z,56.00
2023-01-17T23:09:47.696Z,54.30
2023-01-17T23:12:19.120Z,46.40
2023-01-17T23:15:07.794Z,44.00
2023-01-17T23:17:56.662Z,44.50
2023-01-17T23:20:28.385Z,45.40
2023-01-17T23:23:00.217Z,43.40
2023-01-17T23:25:32.142Z,40.60
2023-01-17T23:28:21.208Z,49.30
2023-01-17T23:30:52.654Z,53.70
2023-01-17T23:33:24.382Z,44.20
2023-01-17T23:35:56.806Z,42.70
2023-01-17T23:38:29.855Z,44.20
2023-01-17T23:41:23.863Z,44.60
2023-01-17T23:43:56.868Z,42.80
2023-01-17T23:46:30.419Z,41.40
2023-01-17T23:49:02.494Z,42.80
2023-01-17T23:51:34.525Z,44.20
2023-01-17T23:54:06.688Z,45.30
2023-01-17T23:56:38.398Z,37.70
2023-01-17T23:59:09.811Z,40.70
